PABE/BET METAR and TAF weather

Enter ICAO airport designator
Station Type Date Time Source
PABE METAR 2019/08/25 19:53 UTC NOAA

PABE 251953Z 34011KT 10SM OVC020 11/07 A3002 RMK AO2 SLP167 T01110067


Station Type Date Time Source
PABE Decoded METAR 2019/08/25 19:53 UTC NOAA

Station name not available
Aug 25, 2019 - 03:53 PM EDT / 2019.08.25 1953 UTC
Wind: from the NNW (340 degrees) at 13 MPH (11 KT):0
Visibility: 10 mile(s):0
Sky conditions: overcast
Temperature: 52.0 F (11.1 C)
Dew Point: 44.1 F (6.7 C)
Relative Humidity: 74%
Pressure (altimeter): 30.02 in. Hg (1016 hPa)
ob: PABE 251953Z 34011KT 10SM OVC020 11/07 A3002 RMK AO2 SLP167 T01110067
cycle: 20

Station Type Date Time Source
PABE TAF 2019/08/25 18:30 UTC NOAA

TAF PABE 251726Z 2518/2618 33005KT P6SM BKN015
FM252200 33005KT P6SM BKN025

Example: see airport list